Falmouth, Virginia
Current Conditions -  °F | °C
As of 10:35 PM on Saturday 24 Jan 2015 (Local Time) from KEZF Reporting Station
Scattered Clouds Scattered Clouds  
Wind Chill: 25°   Ceiling: Unl
Heat Index: 32°   Visibility: 10mi
Dew Point: 31°   Wind: 8mph
Humidity: 97%   Direction: 250°WSW
Pressure: 29.67"   Gusts: NA
Location:  38.3059°N, 77.3439°W
Report Text: KEZF 250335Z AUTO 25007KT 10SM SCT065 00/00 A2967 RMK AO2 T00001004
Loading
Personal Weather Stations






























Interactive Weather Map New forecast layout! Learn more

10-Day Weather Forecast

Advertisements
Track Severe Weather on mobile